This is the latest recevied weather packets stored in our database for station/object KC3QLX. If no packets are shown the sender has not sent any weather packets the latest 10 day(s).
| Time | Temp. | Humidity | Pressure | Rain* | Wind** | Luminosity | Snow |
|---|---|---|---|---|---|---|---|
| 1778186233 | 16.67° C | 40% | 1007.9 hPa | 0 mm | - | 499 W/m² | - |
| 1778185930 | 16.11° C | 41% | 1007.8 hPa | 0 mm | - | 95 W/m² | - |
| 1778185626 | 17.22° C | 39% | 1007.9 hPa | 0 mm | - | 125 W/m² | - |
| 1778185323 | 16.11° C | 41% | 1008 hPa | 0 mm | - | 501 W/m² | - |
| 1778185017 | 16.67° C | 41% | 1007.8 hPa | 0 mm | - | 124 W/m² | - |
| 1778184715 | 17.22° C | 39% | 1007.9 hPa | 0 mm | - | 116 W/m² | - |
| 1778184411 | 17.22° C | 38% | 1007.9 hPa | 0 mm | - | 567 W/m² | - |
| 1778184107 | 17.78° C | 38% | 1008.2 hPa | 0 mm | - | 531 W/m² | - |
| 1778183803 | 17.22° C | 38% | 1007.8 hPa | 0 mm | - | 552 W/m² | - |
| 1778183501 | 17.78° C | 38% | 1008.2 hPa | 0 mm | - | 216 W/m² | - |
| 1778183197 | 17.78° C | 37% | 1008.1 hPa | 0 mm | - | 560 W/m² | - |
| 1778182893 | 17.78° C | 40% | 1008.4 hPa | 0 mm | - | 595 W/m² | - |
| 1778182590 | 16.67° C | 42% | 1008.5 hPa | 0 mm | - | 584 W/m² | - |
| 1778182287 | 16.67° C | 40% | 1008.4 hPa | 0 mm | - | 138 W/m² | - |
| 1778181983 | 18.33° C | 39% | 1008.3 hPa | 0 mm | - | 150 W/m² | - |
| 1778181681 | 16.67° C | 43% | 1008.5 hPa | 0 mm | - | 514 W/m² | - |
| 1778181376 | 16.67° C | 40% | 1008.9 hPa | 0 mm | - | 213 W/m² | - |
| 1778181073 | 16.67° C | 41% | 1008.8 hPa | 0 mm | - | 595 W/m² | - |
| 1778180770 | 17.78° C | 38% | 1008.8 hPa | 0 mm | - | 165 W/m² | - |
| 1778180469 | 17.22° C | 38% | 1008.5 hPa | 0 mm | - | 602 W/m² | - |
| 1778180167 | 17.22° C | 42% | 1008.7 hPa | 0 mm | - | 610 W/m² | - |
| 1778179863 | 17.22° C | 41% | 1009 hPa | 0 mm | - | 600 W/m² | - |
| 1778179562 | 17.78° C | 41% | 1009 hPa | 0 mm | - | 625 W/m² | - |
| 1778179259 | 17.22° C | 41% | 1008.9 hPa | 0 mm | - | 628 W/m² | - |
| 1778178955 | 16.67° C | 43% | 1008.9 hPa | 0 mm | - | 667 W/m² | - |
* Rain latest hour (hover to see other rain measurements)
** Current wind speed in m/s (hover to see current wind gust speed)